Time;durP1;ratioP1;P1;durP2;ratioP2;P2;SDS_P1;SDS_P2;PMS_P1;PMS_P2;Temp;Humidity;BMP_temperature;BMP_pressure;BME280_temperature;BME280_humidity;BME280_pressure;Samples;Min_cycle;Max_cycle;Signal;HPM_P1;HPM_P2
2023/05/21 00:00:59;;;;;;;4.20;1.90;;;14.00;99.90;;;;;;5047395;28;20084;-83
2023/05/21 00:03:27;;;;;;;4.97;1.65;;;14.00;99.90;;;;;;5064422;28;20107;-83
2023/05/21 00:05:53;;;;;;;3.40;1.98;;;14.00;99.90;;;;;;5063992;28;20127;-83
2023/05/21 00:08:19;;;;;;;3.17;2.05;;;14.00;99.90;;;;;;5047428;28;20497;-84
2023/05/21 00:10:45;;;;;;;4.10;1.88;;;14.00;99.90;;;;;;5047099;28;20040;-84
2023/05/21 00:13:11;;;;;;;5.82;2.83;;;14.00;99.90;;;;;;5047315;28;20114;-83
2023/05/21 00:15:37;;;;;;;3.45;1.70;;;14.10;99.90;;;;;;5047278;28;20041;-83
2023/05/21 00:18:03;;;;;;;2.38;1.60;;;13.90;99.90;;;;;;5047680;28;20099;-84
2023/05/21 00:20:31;;;;;;;3.22;1.92;;;13.90;99.90;;;;;;5047161;28;20047;-83
2023/05/21 00:22:57;;;;;;;3.30;1.83;;;13.90;99.90;;;;;;5064138;28;20048;-84
2023/05/21 00:25:23;;;;;;;4.07;1.80;;;13.90;99.90;;;;;;5064093;28;20390;-84
2023/05/21 00:27:49;;;;;;;4.57;1.67;;;13.90;99.90;;;;;;5046521;28;20044;-83
2023/05/21 00:30:15;;;;;;;2.95;1.70;;;13.90;99.90;;;;;;5046974;28;20210;-83
2023/05/21 00:32:41;;;;;;;3.28;1.70;;;13.90;99.90;;;;;;5063638;28;20117;-83
2023/05/21 00:35:07;;;;;;;4.90;2.10;;;13.90;99.90;;;;;;5063742;28;20037;-83
2023/05/21 00:37:33;;;;;;;3.78;2.33;;;13.90;99.90;;;;;;5063557;28;20326;-83
2023/05/21 00:40:10;;;;;;;2.83;2.15;;;13.90;99.90;;;;;;5047176;28;20036;-83
2023/05/21 00:42:40;;;;;;;3.22;1.70;;;13.90;99.90;;;;;;5062912;28;20041;-83
2023/05/21 00:45:06;;;;;;;2.10;1.88;;;13.90;99.90;;;;;;5047257;28;20052;-84
2023/05/21 00:47:33;;;;;;;5.97;2.15;;;13.90;99.90;;;;;;5046279;28;20451;-83
2023/05/21 00:50:02;;;;;;;2.65;1.90;;;13.90;99.90;;;;;;5046223;28;20048;-83
2023/05/21 00:52:28;;;;;;;2.33;1.80;;;13.90;99.90;;;;;;5063049;28;20080;-83
2023/05/21 00:54:54;;;;;;;4.75;1.92;;;13.90;99.90;;;;;;5046460;28;20129;-83
2023/05/21 00:57:21;;;;;;;3.35;1.80;;;13.90;99.90;;;;;;5046621;28;20154;-83
2023/05/21 00:59:51;;;;;;;3.22;1.88;;;13.90;99.90;;;;;;5046278;28;20135;-83
2023/05/21 01:02:17;;;;;;;7.85;1.92;;;13.90;99.90;;;;;;5045864;28;20079;-83
2023/05/21 01:04:44;;;;;;;3.08;1.77;;;13.90;99.90;;;;;;5046243;28;20048;-84
2023/05/21 01:07:11;;;;;;;2.95;1.80;;;13.90;99.90;;;;;;5062366;28;20086;-83
2023/05/21 01:09:37;;;;;;;4.00;1.73;;;13.90;99.90;;;;;;5062658;28;20091;-83
2023/05/21 01:12:04;;;;;;;3.00;2.00;;;13.90;99.90;;;;;;5046227;28;20049;-84
2023/05/21 01:14:31;;;;;;;5.03;1.90;;;13.90;99.90;;;;;;5045872;28;20036;-83
2023/05/21 01:16:58;;;;;;;3.05;1.77;;;13.90;99.90;;;;;;5029843;28;20052;-83
2023/05/21 01:19:24;;;;;;;5.60;2.47;;;13.90;99.90;;;;;;5062016;28;20049;-84
2023/05/21 01:21:55;;;;;;;5.43;1.80;;;13.90;99.90;;;;;;5062513;28;20036;-84
2023/05/21 01:24:21;;;;;;;3.95;2.20;;;13.90;99.90;;;;;;5045760;28;20083;-84
2023/05/21 01:26:47;;;;;;;5.13;1.90;;;13.90;99.90;;;;;;5046333;28;20732;-84
2023/05/21 01:29:13;;;;;;;4.30;2.50;;;13.90;99.90;;;;;;5045322;28;20052;-84
2023/05/21 01:31:58;;;;;;;4.22;2.03;;;13.90;99.90;;;;;;5062708;28;20377;-84
2023/05/21 01:34:43;;;;;;;3.13;1.77;;;13.90;99.90;;;;;;5045875;28;20094;-84
2023/05/21 01:37:32;;;;;;;4.47;2.25;;;13.90;99.90;;;;;;5062611;28;20465;-84
2023/05/21 01:40:09;;;;;;;6.90;2.45;;;13.90;99.90;;;;;;5046137;28;20426;-84
2023/05/21 01:42:36;;;;;;;5.00;2.80;;;13.80;99.90;;;;;;5062282;28;20041;-84
2023/05/21 01:45:05;;;;;;;6.47;2.70;;;13.80;99.90;;;;;;5062073;28;20522;-84
2023/05/21 01:47:31;;;;;;;4.15;2.25;;;13.80;99.90;;;;;;5062005;28;20048;-84
2023/05/21 01:49:59;;;;;;;4.22;2.60;;;13.80;99.90;;;;;;5061944;28;20440;-84
2023/05/21 01:52:25;;;;;;;4.20;2.70;;;13.80;99.90;;;;;;5062133;28;20047;-84
2023/05/21 01:54:53;;;;;;;4.57;2.40;;;13.80;99.90;;;;;;5045383;28;20041;-84
2023/05/21 01:57:19;;;;;;;3.70;2.42;;;13.80;99.90;;;;;;5062583;28;20492;-84
2023/05/21 01:59:46;;;;;;;5.40;2.78;;;13.80;99.90;;;;;;5045623;28;20047;-85
2023/05/21 02:02:12;;;;;;;3.72;2.53;;;12.70;99.90;;;;;;5029190;28;20448;-84
2023/05/21 02:04:40;;;;;;;5.60;3.10;;;13.80;99.90;;;;;;5062151;28;20132;-84
2023/05/21 02:07:06;;;;;;;5.28;3.10;;;13.80;99.90;;;;;;5045431;28;20036;-84
2023/05/21 02:09:32;;;;;;;4.47;2.95;;;13.80;99.90;;;;;;5028685;28;20069;-84
2023/05/21 02:11:57;;;;;;;4.90;2.50;;;13.80;99.90;;;;;;5045709;28;20036;-84
2023/05/21 02:14:26;;;;;;;4.65;3.25;;;13.80;99.90;;;;;;5045256;28;20498;-84
2023/05/21 02:16:51;;;;;;;4.28;2.78;;;13.70;99.90;;;;;;5029460;28;20052;-84
2023/05/21 02:19:17;;;;;;;7.15;3.10;;;13.70;99.90;;;;;;5061888;28;20043;-84
2023/05/21 02:21:44;;;;;;;9.98;2.45;;;13.70;99.90;;;;;;5061651;28;20040;-84
2023/05/21 02:24:10;;;;;;;3.70;2.28;;;13.60;99.90;;;;;;5044871;28;20056;-84
2023/05/21 02:26:36;;;;;;;6.97;2.72;;;13.60;99.90;;;;;;5061827;28;20040;-84
2023/05/21 02:29:03;;;;;;;4.13;2.50;;;13.50;99.90;;;;;;5045106;28;20078;-84
2023/05/21 02:31:28;;;;;;;4.80;2.72;;;13.50;99.90;;;;;;5045611;28;20328;-84
2023/05/21 02:33:55;;;;;;;5.40;2.40;;;13.40;99.90;;;;;;5028427;28;20090;-84
2023/05/21 02:36:20;;;;;;;4.78;2.38;;;13.40;99.90;;;;;;5044508;28;20045;-84
2023/05/21 02:38:46;;;;;;;5.25;2.97;;;13.30;99.90;;;;;;5062316;28;20037;-84
2023/05/21 02:41:12;;;;;;;8.57;2.97;;;13.20;99.90;;;;;;5061427;28;20525;-84
2023/05/21 02:43:38;;;;;;;8.13;3.08;;;13.20;99.90;;;;;;5044965;28;20053;-84
2023/05/21 02:46:06;;;;;;;10.35;3.33;;;13.10;99.90;;;;;;5045771;28;20032;-84
2023/05/21 02:48:31;;;;;;;3.22;2.53;;;13.10;99.90;;;;;;5061705;28;20524;-84
2023/05/21 02:50:58;;;;;;;4.43;2.90;;;13.00;99.90;;;;;;5044890;28;20044;-84
2023/05/21 02:53:23;;;;;;;6.22;2.75;;;13.10;99.90;;;;;;5044652;28;20043;-84
2023/05/21 02:55:49;;;;;;;5.55;3.50;;;13.00;99.90;;;;;;5061138;28;20044;-84
2023/05/21 02:58:15;;;;;;;5.65;3.28;;;13.00;99.90;;;;;;5061211;28;20045;-84
2023/05/21 03:00:41;;;;;;;5.07;3.22;;;13.00;99.90;;;;;;5061542;28;20129;-84
2023/05/21 03:03:06;;;;;;;5.60;3.47;;;13.00;99.90;;;;;;5045303;28;20153;-84
2023/05/21 03:05:32;;;;;;;5.68;3.22;;;13.00;99.90;;;;;;5062834;28;20575;-84
2023/05/21 03:07:58;;;;;;;7.43;3.47;;;13.00;99.90;;;;;;5066142;28;20483;-84
2023/05/21 03:10:24;;;;;;;4.97;2.75;;;13.00;99.90;;;;;;5049409;28;20131;-84
2023/05/21 03:12:49;;;;;;;7.47;3.08;;;13.00;99.90;;;;;;5032450;28;20040;-84
2023/05/21 03:15:15;;;;;;;10.20;3.22;;;13.00;99.90;;;;;;5015684;28;20037;-84
2023/05/21 03:17:43;;;;;;;5.28;3.35;;;13.00;99.90;;;;;;5032463;28;20494;-84
2023/05/21 03:20:15;;;;;;;7.88;3.20;;;13.00;99.90;;;;;;5049114;28;20131;-84
2023/05/21 03:22:43;;;;;;;5.70;2.83;;;13.00;99.90;;;;;;5065070;28;20456;-84
2023/05/21 03:25:10;;;;;;;4.88;2.97;;;13.00;99.90;;;;;;5048251;28;20085;-84
2023/05/21 03:27:36;;;;;;;6.13;3.03;;;13.00;99.90;;;;;;5064449;28;22002;-84
2023/05/21 03:30:02;;;;;;;9.23;3.38;;;13.00;99.90;;;;;;5065560;28;20055;-84
2023/05/21 03:32:28;;;;;;;8.32;3.45;;;12.90;99.90;;;;;;5064870;28;20485;-84
2023/05/21 03:34:53;;;;;;;9.98;3.53;;;12.90;99.90;;;;;;5048378;28;20508;-84
2023/05/21 03:37:19;;;;;;;5.78;3.25;;;12.90;99.90;;;;;;5048313;28;20048;-84
2023/05/21 03:39:45;;;;;;;5.85;2.97;;;12.90;99.90;;;;;;5031528;28;20158;-84
2023/05/21 03:42:12;;;;;;;9.80;3.75;;;12.90;99.90;;;;;;5064359;28;20044;-84
2023/05/21 03:44:38;;;;;;;6.50;3.35;;;12.90;99.90;;;;;;5047714;28;20056;-84
2023/05/21 03:47:04;;;;;;;7.95;3.85;;;13.80;99.90;;;;;;5031096;28;20039;-84
2023/05/21 03:49:29;;;;;;;7.55;3.25;;;12.90;99.90;;;;;;5047401;28;20089;-84
2023/05/21 03:51:55;;;;;;;7.00;3.10;;;12.90;99.90;;;;;;5048077;28;20080;-84
2023/05/21 03:54:21;;;;;;;5.85;3.03;;;13.30;99.90;;;;;;5048153;28;20040;-84
2023/05/21 03:56:46;;;;;;;4.70;3.40;;;12.90;99.90;;;;;;5064655;28;20044;-84
2023/05/21 03:59:12;;;;;;;6.70;3.35;;;12.90;99.90;;;;;;5031269;28;20154;-84
2023/05/21 04:01:38;;;;;;;6.05;3.38;;;12.90;99.90;;;;;;5063905;28;20045;-84
2023/05/21 04:04:04;;;;;;;6.22;3.17;;;12.90;99.90;;;;;;5064104;28;20044;-84
2023/05/21 04:06:30;;;;;;;9.20;3.03;;;12.90;99.90;;;;;;5046916;28;20044;-84
2023/05/21 04:08:55;;;;;;;6.10;3.15;;;12.90;99.90;;;;;;5047184;28;20508;-84
2023/05/21 04:11:21;;;;;;;6.00;3.35;;;12.90;99.90;;;;;;5047629;28;20037;-84
2023/05/21 04:13:47;;;;;;;8.00;3.60;;;13.00;99.90;;;;;;5031132;28;20094;-84
2023/05/21 04:16:13;;;;;;;6.32;3.05;;;13.00;99.90;;;;;;5047048;28;20082;-84
2023/05/21 04:18:40;;;;;;;9.00;3.03;;;13.00;99.90;;;;;;5045743;28;20087;-84
2023/05/21 04:21:06;;;;;;;6.18;2.63;;;13.00;99.90;;;;;;5047575;28;20422;-84
2023/05/21 04:23:35;;;;;;;9.35;2.63;;;13.00;99.90;;;;;;5063371;28;20044;-82
2023/05/21 04:26:01;;;;;;;8.50;2.95;;;13.00;99.90;;;;;;5063975;28;20091;-82
2023/05/21 04:28:27;;;;;;;6.85;2.47;;;13.00;99.90;;;;;;5047047;28;20464;-82
2023/05/21 04:30:55;;;;;;;4.60;2.53;;;13.00;99.90;;;;;;5030410;28;20044;-82
2023/05/21 04:33:21;;;;;;;5.38;2.38;;;13.00;99.90;;;;;;5047126;28;20072;-83
2023/05/21 04:35:50;;;;;;;7.63;2.60;;;13.00;99.90;;;;;;5063187;28;20409;-83
2023/05/21 04:38:19;;;;;;;4.90;2.08;;;13.10;99.90;;;;;;5046806;28;20040;-82
2023/05/21 04:40:51;;;;;;;7.20;3.03;;;13.10;99.90;;;;;;5046749;28;20102;-82
2023/05/21 04:43:17;;;;;;;6.93;2.58;;;13.20;99.90;;;;;;5046974;28;20041;-82
2023/05/21 04:45:42;;;;;;;7.18;2.35;;;13.20;99.90;;;;;;5046536;28;20044;-82
2023/05/21 04:48:08;;;;;;;3.58;2.35;;;13.20;99.90;;;;;;5046432;28;20055;-82
2023/05/21 04:50:34;;;;;;;6.53;1.80;;;13.30;99.90;;;;;;5046340;28;20041;-82
2023/05/21 04:53:02;;;;;;;4.50;2.25;;;13.30;99.90;;;;;;5063575;28;20040;-83
2023/05/21 04:55:27;;;;;;;3.42;1.95;;;13.40;99.90;;;;;;5046316;28;20037;-82
2023/05/21 04:57:53;;;;;;;4.28;2.45;;;13.40;99.90;;;;;;5046082;28;20040;-83
2023/05/21 05:00:19;;;;;;;6.63;2.22;;;13.50;99.90;;;;;;5062941;28;20044;-83
2023/05/21 05:02:45;;;;;;;5.53;2.50;;;13.50;99.90;;;;;;5063314;28;20040;-83
2023/05/21 05:05:11;;;;;;;3.70;2.25;;;13.50;99.90;;;;;;5029901;28;20619;-83
2023/05/21 05:07:36;;;;;;;6.70;2.58;;;13.50;99.90;;;;;;5062511;28;20047;-83
2023/05/21 05:10:02;;;;;;;6.43;2.35;;;13.60;99.90;;;;;;5045990;28;20041;-83
2023/05/21 05:12:28;;;;;;;3.03;1.98;;;13.60;99.90;;;;;;5013145;28;20123;-83
2023/05/21 05:14:54;;;;;;;4.97;2.63;;;13.60;99.90;;;;;;5062150;28;20455;-83
2023/05/21 05:17:19;;;;;;;7.82;2.70;;;13.70;99.90;;;;;;5062684;28;20448;-83
2023/05/21 05:19:45;;;;;;;5.45;1.80;;;13.70;99.90;;;;;;5045822;28;20056;-83
2023/05/21 05:22:11;;;;;;;4.05;2.25;;;13.90;99.90;;;;;;5063000;28;20090;-83
2023/05/21 05:24:36;;;;;;;3.03;1.90;;;13.90;99.90;;;;;;5045627;28;20041;-83
2023/05/21 05:27:02;;;;;;;6.28;2.33;;;14.00;99.90;;;;;;5045647;28;20044;-83
2023/05/21 05:29:28;;;;;;;4.22;2.13;;;14.10;99.90;;;;;;5028802;28;20095;-82
2023/05/21 05:31:53;;;;;;;4.85;2.13;;;14.10;99.90;;;;;;5062343;28;20071;-83
2023/05/21 05:34:20;;;;;;;3.05;1.88;;;14.20;99.90;;;;;;5046347;28;20040;-83
2023/05/21 05:36:46;;;;;;;4.78;1.85;;;14.30;99.90;;;;;;5062089;28;20047;-83
2023/05/21 05:39:11;;;;;;;3.85;1.88;;;14.40;99.90;;;;;;5062502;28;20040;-83
2023/05/21 05:41:37;;;;;;;6.85;2.10;;;14.50;99.90;;;;;;5046164;28;20213;-83
2023/05/21 05:44:03;;;;;;;7.13;2.38;;;14.50;99.90;;;;;;5062152;28;20045;-82
2023/05/21 05:46:28;;;;;;;5.80;1.83;;;14.60;99.90;;;;;;5062237;28;20092;-83
2023/05/21 05:48:54;;;;;;;4.43;2.00;;;14.70;99.90;;;;;;5045176;28;20052;-82
2023/05/21 05:51:20;;;;;;;5.78;1.90;;;14.80;99.90;;;;;;5045805;28;20041;-83
2023/05/21 05:53:45;;;;;;;7.25;2.13;;;15.50;99.90;;;;;;5061963;28;20413;-82
2023/05/21 05:56:11;;;;;;;4.78;2.17;;;14.90;99.90;;;;;;5062334;28;20050;-83
2023/05/21 05:58:37;;;;;;;5.13;1.63;;;14.90;99.90;;;;;;5062484;28;20048;-83
2023/05/21 06:01:02;;;;;;;4.85;2.03;;;15.00;99.90;;;;;;5062473;28;20040;-83
2023/05/21 06:03:28;;;;;;;6.40;1.77;;;15.00;99.90;;;;;;5062252;28;20080;-83
2023/05/21 06:05:54;;;;;;;4.85;2.08;;;15.00;99.90;;;;;;5028495;28;20442;-83
2023/05/21 06:08:20;;;;;;;3.40;2.20;;;15.10;99.90;;;;;;5061824;28;20048;-83
2023/05/21 06:10:45;;;;;;;4.78;2.00;;;15.10;99.90;;;;;;5045152;28;20075;-83
2023/05/21 06:13:11;;;;;;;4.45;1.80;;;15.10;99.90;;;;;;5045386;28;20470;-83
2023/05/21 06:15:38;;;;;;;5.38;2.03;;;15.10;99.90;;;;;;5028674;28;20048;-82
2023/05/21 06:18:03;;;;;;;5.90;2.08;;;15.10;99.90;;;;;;5062341;28;20450;-83
2023/05/21 06:20:29;;;;;;;6.05;2.17;;;15.20;99.90;;;;;;5061693;28;20098;-83
2023/05/21 06:22:55;;;;;;;7.40;2.58;;;15.20;99.90;;;;;;5061498;28;20110;-83
2023/05/21 06:25:21;;;;;;;9.07;2.53;;;15.20;99.90;;;;;;5062313;28;20135;-82
2023/05/21 06:27:46;;;;;;;5.60;2.35;;;15.10;99.90;;;;;;5028066;28;20082;-83
2023/05/21 06:30:12;;;;;;;5.15;1.83;;;15.20;99.90;;;;;;5045501;28;20048;-83
2023/05/21 06:32:38;;;;;;;3.17;1.92;;;15.30;99.90;;;;;;5045180;28;20045;-83
2023/05/21 06:35:04;;;;;;;4.85;1.48;;;15.40;99.90;;;;;;5045235;28;20090;-83
2023/05/21 06:37:30;;;;;;;4.20;1.80;;;15.40;99.90;;;;;;5045410;28;20048;-83
2023/05/21 06:39:55;;;;;;;5.10;1.90;;;15.40;99.90;;;;;;5062001;28;20186;-83
2023/05/21 06:42:21;;;;;;;7.75;2.60;;;15.60;99.90;;;;;;5065278;28;20048;-83
2023/05/21 06:44:47;;;;;;;2.67;1.95;;;15.60;99.90;;;;;;5065872;28;20201;-82
2023/05/21 06:47:12;;;;;;;8.15;2.80;;;15.60;99.90;;;;;;5066203;28;20040;-83
2023/05/21 06:49:38;;;;;;;8.32;2.13;;;15.60;99.90;;;;;;5065272;28;20731;-83
2023/05/21 06:52:04;;;;;;;4.78;2.53;;;15.60;99.90;;;;;;5049442;28;20041;-83
2023/05/21 06:54:30;;;;;;;5.28;2.00;;;15.70;99.90;;;;;;5032053;28;20036;-83
2023/05/21 06:56:55;;;;;;;3.95;1.70;;;15.80;99.90;;;;;;5032387;28;20102;-83
2023/05/21 06:59:21;;;;;;;6.15;1.77;;;15.90;99.90;;;;;;5065404;28;20127;-83
2023/05/21 07:01:46;;;;;;;5.05;1.98;;;16.00;99.90;;;;;;5064846;28;20440;-83
2023/05/21 07:04:12;;;;;;;6.43;1.63;;;16.10;99.90;;;;;;5065216;28;20123;-83
2023/05/21 07:06:38;;;;;;;3.10;1.63;;;16.10;99.90;;;;;;5064970;28;20040;-83
2023/05/21 07:09:07;;;;;;;4.53;1.50;;;16.20;99.90;;;;;;5048515;28;20127;-83
2023/05/21 07:11:33;;;;;;;4.93;1.90;;;16.20;99.90;;;;;;5048281;28;20080;-83
2023/05/21 07:13:59;;;;;;;4.40;2.17;;;16.30;99.90;;;;;;5065325;28;20471;-82
2023/05/21 07:16:25;;;;;;;5.15;1.65;;;16.40;99.90;;;;;;5048233;28;20051;-83
2023/05/21 07:18:51;;;;;;;5.32;1.38;;;16.50;99.90;;;;;;5047826;28;20041;-83
2023/05/21 07:21:16;;;;;;;2.78;1.67;;;16.50;99.90;;;;;;5065025;28;20044;-83
2023/05/21 07:23:42;;;;;;;4.28;2.42;;;16.50;99.90;;;;;;5064609;28;20041;-83
2023/05/21 07:26:09;;;;;;;2.42;1.42;;;16.50;99.90;;;;;;5065170;28;20040;-83
2023/05/21 07:28:34;;;;;;;2.00;1.33;;;16.40;99.90;;;;;;5064257;28;20052;-83
2023/05/21 07:31:00;;;;;;;4.82;1.85;;;16.40;99.90;;;;;;5048220;28;20048;-83
2023/05/21 07:33:26;;;;;;;5.22;1.35;;;16.30;99.90;;;;;;5031428;28;20044;-83
2023/05/21 07:35:52;;;;;;;3.45;1.60;;;16.30;99.90;;;;;;5064768;28;20056;-83
2023/05/21 07:38:18;;;;;;;2.58;1.52;;;16.30;99.90;;;;;;5065155;28;20493;-82
2023/05/21 07:40:44;;;;;;;5.03;2.10;;;16.30;99.90;;;;;;5065202;28;20047;-83
2023/05/21 07:43:10;;;;;;;5.03;1.92;;;16.30;99.90;;;;;;5065315;28;20436;-82
2023/05/21 07:45:35;;;;;;;4.82;1.70;;;16.40;99.90;;;;;;5064507;28;20474;-83
2023/05/21 07:48:01;;;;;;;2.63;1.67;;;16.50;99.90;;;;;;5047597;28;20082;-83
2023/05/21 07:50:27;;;;;;;3.88;1.92;;;16.50;99.90;;;;;;5031494;28;20284;-83
2023/05/21 07:52:52;;;;;;;5.10;1.80;;;16.50;99.90;;;;;;5047655;28;20090;-83
2023/05/21 07:55:18;;;;;;;3.95;1.85;;;16.50;99.90;;;;;;5031572;28;20213;-83
2023/05/21 07:57:44;;;;;;;7.40;2.10;;;16.50;99.90;;;;;;5064611;28;20049;-83
2023/05/21 08:00:13;;;;;;;3.78;1.75;;;16.60;99.90;;;;;;5064458;28;20538;-83
2023/05/21 08:02:39;;;;;;;4.70;1.58;;;16.70;99.90;;;;;;5064574;28;20118;-83
2023/05/21 08:05:05;;;;;;;4.03;1.85;;;16.80;99.90;;;;;;5047316;28;20498;-83
2023/05/21 08:07:31;;;;;;;5.70;1.95;;;16.90;99.90;;;;;;5047706;28;20052;-83
2023/05/21 08:09:57;;;;;;;11.32;2.20;;;16.90;99.90;;;;;;5047812;28;20415;-83
2023/05/21 08:12:23;;;;;;;3.97;1.60;;;16.90;99.90;;;;;;5064132;28;20045;-83
2023/05/21 08:14:49;;;;;;;4.65;1.77;;;16.90;99.90;;;;;;5063906;28;20052;-83
2023/05/21 08:17:15;;;;;;;4.95;2.28;;;17.00;99.90;;;;;;5048013;28;20032;-83
2023/05/21 08:19:41;;;;;;;4.63;1.75;;;17.00;99.90;;;;;;5047248;28;20127;-84
2023/05/21 08:22:06;;;;;;;5.35;3.42;;;17.10;99.90;;;;;;5063600;28;20044;-84
2023/05/21 08:24:32;;;;;;;6.82;2.03;;;17.20;99.90;;;;;;5063909;28;20047;-83
2023/05/21 08:26:58;;;;;;;6.93;2.03;;;17.30;99.90;;;;;;5063751;28;20052;-83
2023/05/21 08:29:24;;;;;;;4.40;2.10;;;17.40;99.90;;;;;;5063613;28;20048;-83
2023/05/21 08:31:50;;;;;;;5.32;1.65;;;17.40;99.90;;;;;;5063897;28;20087;-84
2023/05/21 08:34:17;;;;;;;7.30;2.88;;;17.40;99.90;;;;;;5031032;28;20473;-83
2023/05/21 08:36:44;;;;;;;4.75;1.92;;;17.40;99.90;;;;;;5047373;28;20135;-83
2023/05/21 08:39:14;;;;;;;5.15;1.75;;;17.40;99.90;;;;;;5030942;28;20055;-83
2023/05/21 08:41:43;;;;;;;3.85;1.90;;;17.40;99.90;;;;;;5063257;28;20037;-83
2023/05/21 08:44:11;;;;;;;6.50;1.63;;;17.50;99.90;;;;;;5046752;28;20131;-84
2023/05/21 08:46:39;;;;;;;5.63;1.80;;;17.50;99.90;;;;;;5047038;28;20044;-83
2023/05/21 08:49:12;;;;;;;4.40;1.85;;;17.60;99.90;;;;;;5046182;28;20048;-83
2023/05/21 08:51:38;;;;;;;4.00;2.00;;;17.70;99.90;;;;;;5047335;28;20044;-83
2023/05/21 08:54:04;;;;;;;3.67;1.65;;;17.70;99.90;;;;;;5046737;28;20102;-83
2023/05/21 08:56:34;;;;;;;3.40;1.60;;;17.60;99.90;;;;;;5030219;28;20056;-83
2023/05/21 08:59:01;;;;;;;3.38;2.17;;;17.60;99.90;;;;;;5063398;28;20478;-82
2023/05/21 09:01:27;;;;;;;3.30;1.80;;;17.60;99.90;;;;;;5046311;28;20131;-82
2023/05/21 09:03:56;;;;;;;3.30;1.90;;;17.60;99.90;;;;;;5045960;28;20087;-83
2023/05/21 09:06:24;;;;;;;8.75;2.63;;;17.70;99.90;;;;;;5045991;28;20080;-83
2023/05/21 09:08:59;;;;;;;4.10;1.75;;;17.80;99.90;;;;;;5063052;28;20087;-83
2023/05/21 09:11:25;;;;;;;3.35;1.48;;;18.00;99.90;;;;;;5062717;28;20074;-83
2023/05/21 09:13:52;;;;;;;3.35;1.60;;;18.20;99.90;;;;;;5062327;28;20047;-83
2023/05/21 09:16:18;;;;;;;5.65;2.08;;;18.20;99.90;;;;;;5062879;28;20048;-83
2023/05/21 09:18:43;;;;;;;4.55;2.17;;;18.40;99.90;;;;;;5062364;28;20049;-82
2023/05/21 09:21:26;;;;;;;3.50;2.38;;;18.40;99.90;;;;;;5046229;28;20053;-83
2023/05/21 09:23:56;;;;;;;4.18;1.55;;;18.50;99.90;;;;;;5063298;28;20084;-83
2023/05/21 09:26:23;;;;;;;3.20;1.73;;;18.50;99.90;;;;;;5062919;28;20537;-82
2023/05/21 09:28:50;;;;;;;3.95;1.52;;;18.50;99.90;;;;;;5029134;28;20135;-82
2023/05/21 09:31:16;;;;;;;7.10;2.03;;;18.60;99.90;;;;;;5062072;28;20045;-83
2023/05/21 09:33:49;;;;;;;3.47;1.90;;;18.60;99.90;;;;;;5045972;28;20044;-82
2023/05/21 09:36:19;;;;;;;3.78;1.58;;;18.70;99.90;;;;;;5045317;28;20040;-83
2023/05/21 09:38:45;;;;;;;5.57;1.80;;;18.80;99.90;;;;;;5063130;28;20067;-83
2023/05/21 09:41:11;;;;;;;4.65;1.70;;;18.80;99.90;;;;;;5029169;28;20084;-83
2023/05/21 09:43:37;;;;;;;7.00;1.90;;;18.90;99.90;;;;;;5045872;28;20099;-83
2023/05/21 09:46:02;;;;;;;3.25;1.77;;;18.90;99.90;;;;;;5062409;28;20481;-83
2023/05/21 09:48:37;;;;;;;5.15;2.33;;;19.00;99.90;;;;;;5062580;28;20041;-82
2023/05/21 09:51:12;;;;;;;3.58;1.50;;;19.20;99.90;;;;;;5062520;28;20131;-83
2023/05/21 09:53:52;;;;;;;5.93;1.90;;;19.30;99.90;;;;;;5062450;28;20178;-82
2023/05/21 09:56:23;;;;;;;6.30;1.70;;;19.30;99.90;;;;;;5062493;28;20405;-84
2023/05/21 09:59:05;;;;;;;3.67;1.58;;;19.20;99.90;;;;;;5045556;28;20056;-84
2023/05/21 10:01:35;;;;;;;2.85;1.05;;;19.20;99.90;;;;;;5045452;28;20055;-84
2023/05/21 10:04:07;;;;;;;2.65;1.95;;;19.10;99.90;;;;;;5046268;28;20048;-83
2023/05/21 10:06:42;;;;;;;3.05;1.55;;;19.10;99.90;;;;;;5061475;28;20084;-83
2023/05/21 10:09:14;;;;;;;3.40;1.63;;;19.10;99.90;;;;;;5045316;28;20045;-79
2023/05/21 10:11:43;;;;;;;4.78;1.90;;;19.30;99.90;;;;;;5045219;28;20059;-79
2023/05/21 10:14:19;;;;;;;3.00;1.70;;;19.20;99.90;;;;;;5061392;28;20055;-78
2023/05/21 10:16:46;;;;;;;5.22;1.73;;;19.30;99.90;;;;;;5048271;28;20084;-81
2023/05/21 10:19:14;;;;;;;6.82;1.25;;;19.50;99.90;;;;;;5049356;28;20052;-81
2023/05/21 10:21:40;;;;;;;7.30;1.58;;;19.40;99.90;;;;;;5049351;28;20048;-82
2023/05/21 10:24:08;;;;;;;5.00;1.25;;;19.40;99.90;;;;;;5065788;28;20076;-81
2023/05/21 10:26:35;;;;;;;4.28;2.13;;;19.40;99.90;;;;;;5065971;28;20444;-79
2023/05/21 10:29:02;;;;;;;4.38;1.60;;;18.70;99.90;;;;;;5048700;28;20056;-80
2023/05/21 10:31:28;;;;;;;2.28;1.42;;;19.40;99.90;;;;;;5048513;28;20041;-81
2023/05/21 10:33:55;;;;;;;5.97;1.80;;;19.40;99.90;;;;;;5049619;28;20393;-83
2023/05/21 10:36:22;;;;;;;2.58;1.30;;;19.60;99.90;;;;;;5065342;28;20045;-82
2023/05/21 10:38:50;;;;;;;6.80;1.80;;;19.80;99.90;;;;;;5049485;28;20546;-83
2023/05/21 10:41:18;;;;;;;3.35;1.63;;;19.90;99.90;;;;;;5065492;28;20040;-83
2023/05/21 10:43:49;;;;;;;7.53;1.90;;;20.40;99.90;;;;;;5065411;28;20416;-83
2023/05/21 10:46:33;;;;;;;6.47;1.60;;;20.00;99.90;;;;;;5065472;28;20489;-81
2023/05/21 10:49:22;;;;;;;5.82;1.95;;;20.00;99.90;;;;;;5048369;28;20333;-81
2023/05/21 10:52:03;;;;;;;4.03;2.00;;;19.90;99.90;;;;;;5065691;28;20166;-79
2023/05/21 10:54:37;;;;;;;6.03;1.70;;;19.90;99.90;;;;;;5066896;28;20044;-80
2023/05/21 10:57:36;;;;;;;11.35;2.60;;;19.90;99.90;;;;;;5064767;28;20044;-80
2023/05/21 11:00:04;;;;;;;7.18;2.30;;;19.90;99.90;;;;;;5049119;28;20044;-80
2023/05/21 11:02:31;;;;;;;4.45;1.80;;;20.10;99.90;;;;;;5064857;28;20502;-81
2023/05/21 11:05:01;;;;;;;4.20;1.95;;;20.20;99.90;;;;;;5065087;28;20044;-81
2023/05/21 11:07:55;;;;;;;5.03;2.10;;;20.20;99.90;;;;;;5048663;28;20091;-79
2023/05/21 11:10:35;;;;;;;4.70;1.95;;;20.20;99.90;;;;;;5065260;28;20449;-79
2023/05/21 11:13:07;;;;;;;3.45;2.05;;;20.20;99.90;;;;;;5065991;28;20048;-78
2023/05/21 11:16:00;;;;;;;4.95;1.92;;;20.40;99.90;;;;;;5065731;28;20067;-78
2023/05/21 11:18:34;;;;;;;6.80;2.30;;;20.30;99.90;;;;;;5066326;28;20129;-79
2023/05/21 11:21:12;;;;;;;9.95;2.47;;;20.10;99.90;;;;;;5066569;28;20534;-80
2023/05/21 11:23:50;;;;;;;4.75;2.30;;;20.20;99.90;;;;;;5065772;28;20056;-80
2023/05/21 11:26:17;;;;;;;5.50;2.25;;;20.10;99.90;;;;;;5049770;28;20531;-80
2023/05/21 11:28:43;;;;;;;3.00;1.65;;;20.40;99.90;;;;;;5048823;28;20060;-78
2023/05/21 11:31:25;;;;;;;6.05;2.58;;;20.40;99.90;;;;;;5066449;28;20063;-78
2023/05/21 11:34:10;;;;;;;3.95;2.38;;;20.40;99.90;;;;;;5049008;28;20045;-81
2023/05/21 11:37:22;;;;;;;5.22;2.25;;;20.40;99.90;;;;;;5064943;28;20051;-80
2023/05/21 11:39:49;;;;;;;4.72;2.67;;;20.30;99.90;;;;;;5046903;28;20506;-82
2023/05/21 11:42:29;;;;;;;6.55;2.85;;;20.10;99.90;;;;;;5067162;28;20094;-80
2023/05/21 11:44:59;;;;;;;4.70;2.47;;;20.10;99.90;;;;;;5066523;28;20123;-79
2023/05/21 11:47:26;;;;;;;4.60;2.67;;;20.20;99.90;;;;;;5048388;28;20051;-79
2023/05/21 11:49:52;;;;;;;6.53;2.85;;;20.40;99.90;;;;;;5066385;28;20053;-79
2023/05/21 11:52:19;;;;;;;3.47;2.60;;;20.60;99.90;;;;;;5066349;28;20452;-79
2023/05/21 11:54:54;;;;;;;4.85;3.13;;;20.70;99.90;;;;;;5048318;28;20091;-80
2023/05/21 11:57:20;;;;;;;8.50;3.20;;;20.80;99.90;;;;;;5065767;28;20131;-79
2023/05/21 11:59:47;;;;;;;7.75;3.58;;;20.80;99.90;;;;;;5031988;28;20401;-80
2023/05/21 12:02:17;;;;;;;3.95;2.58;;;20.90;99.90;;;;;;5064211;28;20040;-79
2023/05/21 12:04:45;;;;;;;5.90;3.33;;;20.90;99.90;;;;;;5065043;28;20838;-81
2023/05/21 12:07:13;;;;;;;8.68;3.13;;;20.90;99.90;;;;;;5064806;28;20044;-80
2023/05/21 12:09:47;;;;;;;11.45;2.83;;;20.80;99.90;;;;;;5064394;28;20064;-81
2023/05/21 12:12:21;;;;;;;5.63;3.25;;;20.90;99.90;;;;;;5064805;28;20048;-78
2023/05/21 12:14:52;;;;;;;5.30;2.80;;;20.80;99.90;;;;;;5064487;28;20091;-79
2023/05/21 12:17:23;;;;;;;11.13;4.07;;;20.80;99.90;;;;;;5063853;28;20254;-79
2023/05/21 12:19:53;;;;;;;4.25;3.38;;;20.80;99.90;;;;;;5064266;28;20101;-78
2023/05/21 12:22:19;;;;;;;7.47;3.55;;;20.70;99.90;;;;;;5063465;28;20493;-79
2023/05/21 12:24:45;;;;;;;7.50;3.55;;;20.70;99.90;;;;;;5064639;28;20463;-79
2023/05/21 12:27:12;;;;;;;4.82;3.40;;;20.80;99.90;;;;;;5047150;28;20485;-80
2023/05/21 12:29:43;;;;;;;6.75;3.22;;;20.80;99.90;;;;;;5031486;28;20055;-78
2023/05/21 12:32:11;;;;;;;8.95;4.35;;;20.90;99.90;;;;;;5064307;28;20062;-79
2023/05/21 12:34:43;;;;;;;5.60;3.50;;;20.90;99.90;;;;;;5064220;28;20044;-79
2023/05/21 12:37:11;;;;;;;6.03;4.13;;;21.00;99.90;;;;;;5064464;28;20087;-79
2023/05/21 12:39:38;;;;;;;7.50;3.67;;;21.00;99.90;;;;;;5046399;28;20230;-80
2023/05/21 12:42:05;;;;;;;9.32;3.67;;;21.20;99.90;;;;;;5048093;28;20536;-79
2023/05/21 12:44:31;;;;;;;6.97;3.85;;;21.20;99.90;;;;;;5064067;28;20036;-77
2023/05/21 12:46:58;;;;;;;9.10;4.38;;;21.30;99.90;;;;;;5065067;28;20044;-77
2023/05/21 12:49:40;;;;;;;9.25;3.85;;;21.30;99.90;;;;;;5063308;28;20087;-79